createdAt,value
2022-11-22T00:01:11.258Z,6.90
2022-11-22T00:03:42.680Z,5.83
2022-11-22T00:06:16.381Z,8.27
2022-11-22T00:08:59.965Z,5.53
2022-11-22T00:11:36.538Z,6.83
2022-11-22T00:14:12.342Z,8.13
2022-11-22T00:16:44.523Z,4.43
2022-11-22T00:19:18.997Z,6.30
2022-11-22T00:21:51.899Z,5.50
2022-11-22T00:24:27.468Z,4.37
2022-11-22T00:26:59.992Z,6.20
2022-11-22T00:29:31.645Z,6.23
2022-11-22T00:32:06.118Z,5.90
2022-11-22T00:34:35.593Z,5.13
2022-11-22T00:37:04.970Z,5.57
2022-11-22T00:39:34.634Z,8.80
2022-11-22T00:42:05.725Z,7.10
2022-11-22T00:44:41.894Z,5.23
2022-11-22T00:47:10.808Z,6.50
2022-11-22T00:49:39.654Z,4.90
2022-11-22T00:52:09.042Z,5.77
2022-11-22T00:54:38.112Z,5.07
2022-11-22T00:57:07.342Z,8.27
2022-11-22T00:59:36.848Z,7.53
2022-11-22T01:02:10.325Z,6.60
2022-11-22T01:04:39.013Z,6.47
2022-11-22T01:07:08.361Z,5.13
2022-11-22T01:09:37.519Z,6.90
2022-11-22T01:12:07.136Z,4.07
2022-11-22T01:14:36.603Z,4.87
2022-11-22T01:17:07.514Z,4.97
2022-11-22T01:19:36.620Z,5.00
2022-11-22T01:22:06.427Z,8.17
2022-11-22T01:24:35.666Z,6.60
2022-11-22T01:27:05.410Z,5.43
2022-11-22T01:29:34.789Z,4.70
2022-11-22T01:32:10.472Z,7.23
2022-11-22T01:34:39.745Z,4.70
2022-11-22T01:37:09.170Z,11.13
2022-11-22T01:39:38.665Z,7.77
2022-11-22T01:42:07.967Z,5.40
2022-11-22T01:44:38.671Z,5.67
2022-11-22T01:47:13.940Z,4.77
2022-11-22T01:49:48.627Z,4.90
2022-11-22T01:52:21.072Z,6.37
2022-11-22T01:54:56.488Z,5.03
2022-11-22T01:57:33.441Z,5.87
2022-11-22T02:00:13.968Z,6.50
2022-11-22T02:02:49.072Z,9.23
2022-11-22T02:05:24.888Z,5.80
2022-11-22T02:08:33.750Z,8.60
2022-11-22T02:11:22.078Z,11.20
2022-11-22T02:13:54.664Z,9.77
2022-11-22T02:16:40.034Z,9.87
2022-11-22T02:19:28.863Z,6.23
2022-11-22T02:22:14.248Z,6.17
2022-11-22T02:24:56.324Z,9.13
2022-11-22T02:27:33.787Z,7.97
2022-11-22T02:30:04.349Z,6.30
2022-11-22T02:32:46.024Z,5.47
2022-11-22T02:35:27.058Z,5.93
2022-11-22T02:38:02.579Z,9.50
2022-11-22T02:40:41.467Z,7.30
2022-11-22T02:43:17.108Z,10.53
2022-11-22T02:45:53.752Z,5.93
2022-11-22T02:48:30.340Z,6.90
2022-11-22T02:51:05.387Z,7.20
2022-11-22T02:53:42.194Z,6.63
2022-11-22T02:56:15.510Z,7.17
2022-11-22T02:58:49.101Z,11.53
2022-11-22T03:01:20.746Z,8.03
2022-11-22T03:03:53.712Z,7.47
2022-11-22T03:06:24.390Z,6.63
2022-11-22T03:08:58.173Z,5.67
2022-11-22T03:11:29.846Z,7.70
2022-11-22T03:14:02.687Z,6.63
2022-11-22T03:16:34.759Z,10.00
2022-11-22T03:19:13.003Z,5.57
2022-11-22T03:21:45.495Z,9.77
2022-11-22T03:24:22.095Z,10.50
2022-11-22T03:26:54.278Z,8.93
2022-11-22T03:29:28.759Z,7.20
2022-11-22T03:32:00.628Z,11.87
2022-11-22T03:34:35.090Z,9.07
2022-11-22T03:37:08.061Z,7.13
2022-11-22T03:39:40.766Z,11.20
2022-11-22T03:42:13.630Z,12.37
2022-11-22T03:44:50.741Z,11.30
2022-11-22T03:47:19.147Z,9.30
2022-11-22T03:49:47.043Z,6.80
2022-11-22T03:52:15.739Z,8.90
2022-11-22T03:54:44.021Z,9.10
2022-11-22T03:57:12.584Z,9.40
2022-11-22T03:59:40.621Z,10.07
2022-11-22T04:02:10.044Z,8.33
2022-11-22T04:04:38.049Z,8.53
2022-11-22T04:07:06.012Z,7.53
2022-11-22T04:09:34.418Z,9.33
2022-11-22T04:12:02.386Z,9.93
2022-11-22T04:14:47.759Z,8.97
2022-11-22T04:17:37.576Z,9.87
2022-11-22T04:20:20.045Z,6.37
2022-11-22T04:22:56.524Z,8.37
2022-11-22T05:27:51.556Z,11.37
2022-11-22T05:30:27.610Z,12.13
2022-11-22T05:33:25.628Z,11.83
2022-11-22T05:36:05.687Z,10.37
2022-11-22T05:38:38.079Z,8.27
2022-11-22T05:41:10.219Z,10.17
2022-11-22T05:43:55.460Z,10.80
2022-11-22T05:46:29.312Z,7.37
2022-11-22T05:49:05.221Z,11.10
2022-11-22T05:51:54.184Z,11.93
2022-11-22T05:54:31.622Z,10.13
2022-11-22T05:57:04.291Z,12.97
2022-11-22T05:59:44.355Z,9.53
2022-11-22T06:02:15.676Z,11.60
2022-11-22T06:04:47.969Z,8.10
2022-11-22T06:07:30.119Z,6.60
2022-11-22T06:09:58.407Z,11.93
2022-11-22T06:12:26.459Z,12.40
2022-11-22T06:14:54.436Z,12.77
2022-11-22T06:17:22.626Z,11.80
2022-11-22T06:19:50.832Z,11.43
2022-11-22T06:22:20.789Z,9.63
2022-11-22T06:24:54.919Z,12.80
2022-11-22T06:27:23.340Z,11.07
2022-11-22T06:29:51.506Z,8.37
2022-11-22T06:32:19.956Z,12.13
2022-11-22T06:34:49.359Z,10.77
2022-11-22T06:37:17.557Z,10.27
2022-11-22T06:39:46.956Z,13.57
2022-11-22T06:42:15.003Z,11.40
2022-11-22T06:44:43.204Z,11.07
2022-11-22T06:47:11.656Z,9.40
2022-11-22T06:49:39.749Z,9.80
2022-11-22T06:52:07.930Z,11.67
2022-11-22T06:54:37.754Z,13.10
2022-11-22T06:57:07.372Z,14.10
2022-11-22T06:59:36.003Z,9.60
2022-11-22T07:02:06.616Z,7.33
2022-11-22T07:04:35.109Z,12.43
2022-11-22T07:07:03.525Z,11.30
2022-11-22T07:09:31.965Z,16.60
2022-11-22T07:12:00.456Z,11.97
2022-11-22T07:14:29.848Z,11.47
2022-11-22T07:16:57.980Z,17.23
2022-11-22T07:19:26.014Z,11.87
2022-11-22T07:21:53.914Z,11.13
2022-11-22T07:24:21.822Z,14.23
2022-11-22T07:26:49.842Z,14.90
2022-11-22T07:29:17.854Z,9.73
2022-11-22T07:31:47.575Z,10.33
2022-11-22T07:34:15.865Z,15.73
2022-11-22T07:36:43.996Z,15.17
2022-11-22T07:39:12.505Z,10.83
2022-11-22T07:41:40.521Z,13.13
2022-11-22T07:44:08.577Z,10.43
2022-11-22T07:46:36.651Z,9.37
2022-11-22T07:49:08.004Z,7.50
2022-11-22T07:51:36.479Z,10.10
2022-11-22T07:54:07.900Z,7.43
2022-11-22T07:56:36.009Z,9.03
2022-11-22T07:59:04.077Z,11.03
2022-11-22T08:01:32.285Z,13.73
2022-11-22T08:04:00.921Z,10.43
2022-11-22T08:06:30.671Z,13.03
2022-11-22T08:09:02.240Z,8.70
2022-11-22T08:11:30.913Z,8.37
2022-11-22T08:13:58.919Z,10.50
2022-11-22T08:16:26.982Z,6.63
2022-11-22T08:18:54.942Z,7.00
2022-11-22T08:21:23.430Z,9.53
2022-11-22T08:23:52.664Z,11.23
2022-11-22T08:26:21.164Z,10.00
2022-11-22T08:28:49.354Z,9.30
2022-11-22T08:31:19.691Z,14.17
2022-11-22T08:33:48.188Z,5.30
2022-11-22T08:36:16.499Z,8.93
2022-11-22T08:38:44.587Z,6.97
2022-11-22T08:41:14.307Z,10.20
2022-11-22T08:43:42.509Z,8.77
2022-11-22T08:46:10.791Z,5.43
2022-11-22T08:48:39.650Z,7.43
2022-11-22T08:51:10.329Z,9.00
2022-11-22T08:53:49.389Z,7.67
2022-11-22T08:56:18.997Z,7.07
2022-11-22T08:58:46.972Z,12.17
2022-11-22T09:01:17.420Z,8.53
2022-11-22T09:03:46.226Z,9.63
2022-11-22T09:09:30.501Z,8.70
2022-11-22T09:11:58.244Z,10.63
2022-11-22T09:14:27.042Z,10.13
2022-11-22T09:16:55.768Z,8.63
2022-11-22T09:19:27.590Z,10.53
2022-11-22T09:21:56.232Z,6.30
2022-11-22T09:24:24.170Z,7.33
2022-11-22T09:26:52.443Z,9.43
2022-11-22T09:29:21.751Z,10.97
2022-11-22T09:31:52.990Z,5.83
2022-11-22T09:34:21.092Z,5.40
2022-11-22T09:36:49.158Z,7.47
2022-11-22T09:39:17.176Z,5.70
2022-11-22T09:42:12.426Z,6.83
2022-11-22T09:44:54.381Z,7.90
2022-11-22T09:47:35.975Z,4.77
2022-11-22T09:50:15.793Z,5.67
2022-11-22T09:52:49.161Z,5.50
2022-11-22T09:55:25.825Z,9.70
2022-11-22T09:58:07.711Z,5.00
2022-11-22T10:00:37.271Z,4.43
2022-11-22T10:03:13.748Z,6.53
2022-11-22T10:05:51.132Z,9.43
2022-11-22T10:08:33.819Z,4.73
2022-11-22T10:11:05.003Z,6.90
2022-11-22T10:21:18.678Z,9.77
2022-11-22T10:23:59.818Z,7.00
2022-11-22T10:30:07.109Z,11.03
2022-11-22T10:36:07.115Z,7.93
2022-11-22T10:39:04.183Z,10.13
2022-11-22T10:41:44.729Z,6.07
2022-11-22T10:44:27.678Z,6.10
2022-11-22T10:47:34.552Z,4.40
2022-11-22T10:50:51.782Z,5.57
2022-11-22T10:54:03.298Z,6.27
2022-11-22T10:57:28.222Z,7.73
2022-11-22T11:00:40.974Z,9.80
2022-11-22T11:03:44.301Z,5.00
2022-11-22T11:06:50.028Z,7.93
2022-11-22T11:10:29.325Z,4.87
2022-11-22T11:13:24.451Z,8.03
2022-11-22T11:16:01.583Z,8.00
2022-11-22T11:18:42.542Z,5.83
2022-11-22T11:21:18.315Z,8.70
2022-11-22T11:24:01.701Z,6.60
2022-11-22T11:26:37.902Z,6.17
2022-11-22T11:36:53.720Z,4.13
2022-11-22T11:39:41.916Z,8.47
2022-11-22T11:42:34.199Z,6.87
2022-11-22T11:45:34.651Z,11.43
2022-11-22T11:48:09.048Z,5.70
2022-11-22T11:50:41.023Z,5.73
2022-11-22T11:53:33.025Z,6.93
2022-11-22T11:56:58.735Z,7.23
2022-11-22T11:59:55.622Z,6.60
2022-11-22T12:02:34.855Z,4.47
2022-11-22T12:05:51.934Z,7.13
2022-11-22T12:09:05.508Z,5.20
2022-11-22T12:15:10.156Z,7.53
2022-11-22T12:17:50.873Z,4.93
2022-11-22T12:20:36.520Z,2.80
2022-11-22T12:23:37.775Z,8.67
2022-11-22T12:26:12.556Z,5.13
2022-11-22T12:29:04.607Z,12.73
2022-11-22T12:31:45.600Z,10.17
2022-11-22T12:34:30.572Z,4.50
2022-11-22T12:37:12.658Z,6.03
2022-11-22T12:40:08.474Z,3.63
2022-11-22T12:42:51.102Z,7.27
2022-11-22T12:45:31.030Z,5.37
2022-11-22T12:48:11.848Z,6.63
2022-11-22T12:50:46.929Z,6.40
2022-11-22T12:54:00.291Z,3.03
2022-11-22T12:56:38.793Z,6.17
2022-11-22T12:59:25.403Z,5.13
2022-11-22T13:02:03.348Z,8.57
2022-11-22T13:04:39.463Z,6.60
2022-11-22T13:07:16.861Z,1.37
2022-11-22T13:09:52.691Z,4.13
2022-11-22T13:12:27.414Z,6.73
2022-11-22T13:14:57.138Z,8.63
2022-11-22T13:17:32.245Z,5.60
2022-11-22T13:20:05.958Z,3.70
2022-11-22T13:22:44.834Z,3.60
2022-11-22T13:25:33.557Z,2.10
2022-11-22T13:28:07.438Z,8.63
2022-11-22T13:30:53.787Z,2.67
2022-11-22T13:33:51.483Z,2.40
2022-11-22T13:40:35.144Z,8.50
2022-11-22T13:43:56.875Z,4.53
2022-11-22T13:46:58.074Z,3.07
2022-11-22T13:50:00.114Z,2.60
2022-11-22T13:52:54.662Z,2.27
2022-11-22T13:59:56.546Z,5.30
2022-11-22T14:02:29.300Z,4.43
2022-11-22T14:05:30.153Z,5.40
2022-11-22T14:08:08.757Z,4.17
2022-11-22T14:11:05.993Z,6.83
2022-11-22T14:16:52.088Z,3.67
2022-11-22T14:19:40.896Z,4.43
2022-11-22T14:22:20.343Z,6.03
2022-11-22T14:25:23.708Z,5.77
2022-11-22T14:27:57.732Z,5.33
2022-11-22T14:30:39.936Z,4.23
2022-11-22T14:33:16.687Z,6.43
2022-11-22T14:36:16.240Z,5.03
2022-11-22T14:38:46.010Z,3.80
2022-11-22T14:41:41.716Z,3.10
2022-11-22T14:44:14.044Z,6.87
2022-11-22T14:46:54.974Z,4.60
2022-11-22T14:49:32.763Z,3.77
2022-11-22T14:52:02.681Z,3.10
2022-11-22T14:54:42.161Z,3.47
2022-11-22T14:57:20.769Z,5.97
2022-11-22T15:00:09.702Z,6.43
2022-11-22T15:03:21.340Z,8.80
2022-11-22T15:09:23.398Z,4.33
2022-11-22T15:09:46.444Z,3.97
2022-11-22T15:12:38.739Z,2.20
2022-11-22T15:57:29.005Z,2.00
2022-11-22T15:59:59.460Z,3.10
2022-11-22T16:02:37.526Z,3.37
2022-11-22T16:06:07.398Z,2.80
2022-11-22T16:08:07.910Z,2.97
2022-11-22T16:10:44.076Z,4.90
2022-11-22T16:13:36.954Z,2.70
2022-11-22T16:16:20.246Z,5.37
2022-11-22T16:18:50.855Z,3.90
2022-11-22T16:21:25.238Z,3.03
2022-11-22T16:24:17.480Z,2.40
2022-11-22T16:26:56.357Z,5.63
2022-11-22T16:29:32.311Z,6.00
2022-11-22T16:32:02.620Z,3.73
2022-11-22T16:34:32.444Z,2.33
2022-11-22T16:37:00.614Z,3.00
2022-11-22T16:39:29.297Z,5.00
2022-11-22T16:41:58.121Z,4.27
2022-11-22T16:44:26.441Z,2.73
2022-11-22T16:46:54.858Z,2.00
2022-11-22T16:49:23.708Z,3.73
2022-11-22T16:52:12.132Z,2.90
2022-11-22T16:55:17.104Z,5.83
2022-11-22T16:57:49.279Z,3.47
2022-11-22T17:00:28.585Z,3.17
2022-11-22T17:03:05.621Z,6.00
2022-11-22T17:05:39.623Z,1.77
2022-11-22T17:11:03.192Z,3.77
2022-11-22T17:13:32.916Z,2.33
2022-11-22T17:16:02.084Z,4.03
2022-11-22T17:18:30.703Z,1.97
2022-11-22T17:21:00.227Z,3.00
2022-11-22T17:23:33.131Z,5.40
2022-11-22T17:26:01.110Z,3.47
2022-11-22T17:28:29.113Z,2.70
2022-11-22T17:33:41.696Z,3.57
2022-11-22T17:36:21.535Z,5.50
2022-11-22T17:38:50.813Z,2.30
2022-11-22T17:41:19.606Z,2.33
2022-11-22T17:43:50.225Z,3.67
2022-11-22T17:46:22.307Z,3.30
2022-11-22T17:49:15.688Z,3.37
2022-11-22T17:53:12.255Z,1.80
2022-11-22T17:56:10.123Z,1.63
2022-11-22T17:59:14.100Z,1.37
2022-11-22T18:01:43.933Z,3.43
2022-11-22T18:04:15.193Z,3.23
2022-11-22T18:06:46.327Z,2.30
2022-11-22T18:09:22.681Z,2.13
2022-11-22T18:11:56.258Z,1.73
2022-11-22T18:14:35.593Z,5.30
2022-11-22T18:17:08.918Z,2.93
2022-11-22T18:19:45.019Z,2.60
2022-11-22T18:22:21.444Z,6.70
2022-11-22T18:24:53.008Z,3.73
2022-11-22T18:27:22.573Z,2.43
2022-11-22T18:29:50.757Z,5.27
2022-11-22T18:32:18.711Z,5.07
2022-11-22T18:34:47.709Z,3.30
2022-11-22T18:37:15.646Z,2.20
2022-11-22T18:39:43.553Z,2.00
2022-11-22T18:42:14.629Z,4.30
2022-11-22T18:44:44.240Z,4.37
2022-11-22T18:47:12.082Z,2.33
2022-11-22T18:49:40.060Z,2.73
2022-11-22T18:52:11.898Z,5.17
2022-11-22T18:54:43.889Z,3.43
2022-11-22T18:57:11.835Z,2.73
2022-11-22T18:59:39.683Z,2.00
2022-11-22T19:02:09.155Z,1.97
2022-11-22T19:04:37.357Z,3.50
2022-11-22T19:07:05.699Z,3.97
2022-11-22T19:09:33.659Z,4.13
2022-11-22T19:12:01.775Z,4.80
2022-11-22T19:14:30.241Z,4.33
2022-11-22T19:17:01.405Z,3.97
2022-11-22T19:19:35.411Z,2.60
2022-11-22T19:22:11.802Z,2.53
2022-11-22T19:24:47.523Z,4.97
2022-11-22T19:27:18.175Z,4.37
2022-11-22T19:29:50.971Z,5.00
2022-11-22T19:32:19.060Z,2.93
2022-11-22T19:34:48.394Z,3.50
2022-11-22T19:37:16.690Z,5.10
2022-11-22T19:39:44.637Z,2.37
2022-11-22T19:42:13.102Z,2.73
2022-11-22T19:44:41.050Z,2.93
2022-11-22T19:47:09.037Z,6.53
2022-11-22T19:49:37.058Z,4.43
2022-11-22T19:52:06.465Z,2.50
2022-11-22T19:54:34.593Z,4.17
2022-11-22T19:57:02.496Z,4.50
2022-11-22T19:59:32.100Z,4.57
2022-11-22T20:02:02.150Z,5.70
2022-11-22T20:04:30.219Z,5.53
2022-11-22T20:06:59.869Z,4.80
2022-11-22T20:09:29.472Z,4.80
2022-11-22T20:11:57.610Z,4.80
2022-11-22T20:14:27.838Z,5.63
2022-11-22T20:16:56.419Z,5.30
2022-11-22T20:19:31.142Z,5.30
2022-11-22T20:22:03.814Z,6.37
2022-11-22T20:24:34.449Z,6.23
2022-11-22T20:27:03.707Z,6.03
2022-11-22T20:29:35.098Z,7.10
2022-11-22T20:32:05.328Z,6.67
2022-11-22T20:34:36.892Z,7.23
2022-11-22T20:37:09.676Z,6.83
2022-11-22T20:43:21.782Z,6.13
2022-11-22T20:46:01.654Z,7.70
2022-11-22T20:48:30.517Z,5.43
2022-11-22T20:50:59.526Z,4.13
2022-11-22T20:56:17.726Z,7.57
2022-11-22T20:58:55.524Z,5.37
2022-11-22T21:01:28.366Z,8.87
2022-11-22T21:03:58.690Z,7.67
2022-11-22T21:06:33.529Z,7.23
2022-11-22T21:09:06.159Z,8.47
2022-11-22T21:11:35.628Z,6.50
2022-11-22T21:14:07.607Z,7.60
2022-11-22T21:16:39.009Z,5.20
2022-11-22T21:19:10.033Z,10.37
2022-11-22T21:21:44.955Z,4.60
2022-11-22T21:24:23.402Z,5.27
2022-11-22T21:27:05.426Z,6.83
2022-11-22T21:29:39.870Z,6.17
2022-11-22T21:32:22.262Z,5.00
2022-11-22T21:35:45.891Z,8.90
2022-11-22T21:38:37.805Z,6.80
2022-11-22T21:41:39.215Z,5.90
2022-11-22T21:47:06.061Z,6.23
2022-11-22T21:49:43.579Z,5.43
2022-11-22T21:52:29.113Z,4.43
2022-11-22T21:55:02.375Z,9.20
2022-11-22T21:57:40.358Z,6.40
2022-11-22T22:00:18.102Z,6.20
2022-11-22T22:03:35.764Z,7.67
2022-11-22T22:06:33.726Z,5.67
2022-11-22T22:09:08.609Z,8.53
2022-11-22T22:19:48.250Z,5.47
2022-11-22T22:25:11.475Z,7.35
2022-11-22T22:27:41.674Z,4.77
2022-11-22T22:30:16.568Z,6.53
2022-11-22T22:32:47.135Z,5.00
2022-11-22T22:38:25.771Z,6.10
2022-11-22T22:46:35.185Z,7.17
2022-11-22T22:49:05.224Z,4.37
2022-11-22T22:51:37.241Z,4.40
2022-11-22T22:54:11.757Z,5.80
2022-11-22T22:56:43.934Z,5.37
2022-11-22T22:59:15.882Z,3.70
2022-11-22T23:01:46.803Z,5.53
2022-11-22T23:04:16.037Z,7.77
2022-11-22T23:06:45.350Z,8.97
2022-11-22T23:09:16.319Z,5.33
2022-11-22T23:14:59.166Z,5.70
2022-11-22T23:17:34.860Z,4.37
2022-11-22T23:20:08.493Z,5.73
2022-11-22T23:22:38.274Z,5.53
2022-11-22T23:25:09.426Z,7.17
2022-11-22T23:27:44.447Z,10.03
2022-11-22T23:30:14.558Z,5.90
2022-11-22T23:32:45.699Z,5.20
2022-11-22T23:38:08.571Z,9.80
2022-11-22T23:40:44.839Z,4.40
2022-11-22T23:46:18.506Z,7.80
2022-11-22T23:48:56.722Z,6.97
2022-11-22T23:51:31.556Z,9.13
2022-11-22T23:54:02.038Z,6.67
